Time;durP1;ratioP1;P1;durP2;ratioP2;P2;SDS_P1;SDS_P2;PMS_P1;PMS_P2;Temp;Humidity;BMP_temperature;BMP_pressure;BME280_temperature;BME280_humidity;BME280_pressure;Samples;Min_cycle;Max_cycle;Signal;HPM_P1;HPM_P2
2022/01/22 00:00:16;;;;;;;20.13;8.07;;;2.90;95.30;;;;;;4973000;28;20602;-77
2022/01/22 00:02:44;;;;;;;12.60;7.65;;;2.80;95.30;;;;;;4987359;28;20264;-78
2022/01/22 00:05:12;;;;;;;11.07;7.03;;;2.90;95.60;;;;;;4984367;28;20689;-76
2022/01/22 00:07:39;;;;;;;11.60;7.53;;;2.90;95.80;;;;;;4962552;28;20702;-76
2022/01/22 00:10:10;;;;;;;13.73;7.53;;;2.90;95.30;;;;;;4969965;28;20226;-77
2022/01/22 00:12:56;;;;;;;15.35;7.50;;;2.90;95.50;;;;;;4961980;28;20214;-77
2022/01/22 00:15:25;;;;;;;15.27;7.40;;;2.90;95.10;;;;;;4960351;28;20217;-77
2022/01/22 00:17:53;;;;;;;14.40;6.53;;;2.90;94.90;;;;;;4958239;28;20288;-77
2022/01/22 00:20:22;;;;;;;11.82;6.90;;;2.90;94.90;;;;;;4976820;28;20217;-77
2022/01/22 00:22:50;;;;;;;13.25;6.97;;;2.90;94.70;;;;;;4977891;28;20319;-77
2022/01/22 00:25:18;;;;;;;15.73;7.03;;;2.90;94.60;;;;;;4979986;28;20220;-80
2022/01/22 00:27:47;;;;;;;16.17;7.45;;;2.90;94.80;;;;;;4983740;28;20248;-77
2022/01/22 00:30:16;;;;;;;10.82;6.68;;;2.90;94.80;;;;;;4983524;28;20216;-76
2022/01/22 00:32:45;;;;;;;11.63;6.65;;;3.00;94.80;;;;;;4986386;28;20291;-76
2022/01/22 00:35:12;;;;;;;11.23;7.28;;;3.00;94.40;;;;;;4960381;28;20701;-78
2022/01/22 00:37:41;;;;;;;10.10;6.07;;;3.00;94.40;;;;;;4974932;28;20701;-76
2022/01/22 00:40:10;;;;;;;13.07;6.75;;;3.00;94.40;;;;;;4980910;28;20292;-77
2022/01/22 00:42:37;;;;;;;10.60;7.25;;;3.00;94.10;;;;;;4981314;28;20210;-77
2022/01/22 00:45:04;;;;;;;10.20;6.75;;;3.00;94.00;;;;;;4976981;28;20246;-77
2022/01/22 00:47:31;;;;;;;11.57;6.85;;;3.00;94.10;;;;;;4988252;28;20260;-76
2022/01/22 00:49:59;;;;;;;13.02;6.22;;;2.90;93.90;;;;;;4997266;28;20215;-77
2022/01/22 00:52:26;;;;;;;9.95;6.00;;;2.90;94.20;;;;;;4987023;28;20228;-75
2022/01/22 00:54:53;;;;;;;11.98;7.18;;;2.90;94.20;;;;;;4967910;28;20245;-77
2022/01/22 00:57:20;;;;;;;12.43;7.05;;;2.90;94.30;;;;;;4966854;28;20228;-76
2022/01/22 00:59:47;;;;;;;15.38;7.80;;;2.90;94.20;;;;;;4978417;28;20316;-77
2022/01/22 01:02:14;;;;;;;11.00;6.63;;;2.90;94.30;;;;;;4972239;28;20238;-77
2022/01/22 01:04:41;;;;;;;10.02;7.47;;;2.90;94.40;;;;;;4958730;28;20229;-77
2022/01/22 01:07:09;;;;;;;11.43;6.32;;;2.90;94.30;;;;;;4963874;28;20217;-78
2022/01/22 01:09:38;;;;;;;12.52;7.70;;;2.90;94.40;;;;;;4981255;28;20673;-78
2022/01/22 01:12:09;;;;;;;15.00;6.90;;;2.90;94.60;;;;;;4979921;28;20676;-78
2022/01/22 01:14:41;;;;;;;15.45;8.35;;;2.80;94.30;;;;;;4978369;28;20316;-76
2022/01/22 01:17:21;;;;;;;10.98;6.90;;;2.90;94.40;;;;;;4973853;28;20221;-78
2022/01/22 01:33:42;;;;;;;10.60;7.63;;;3.10;93.40;;;;;;4964990;28;20279;-77
2022/01/22 01:36:11;;;;;;;11.70;7.22;;;3.00;93.10;;;;;;4959269;28;20304;-78
2022/01/22 01:38:43;;;;;;;14.70;7.60;;;3.00;92.70;;;;;;4975552;28;20252;-77
2022/01/22 01:41:19;;;;;;;13.95;7.18;;;3.00;92.80;;;;;;4986980;28;20217;-77
2022/01/22 01:43:46;;;;;;;13.13;8.10;;;3.00;93.20;;;;;;4967213;28;20221;-77
2022/01/22 01:46:13;;;;;;;13.10;8.10;;;3.00;93.20;;;;;;4962355;28;20205;-77
2022/01/22 01:48:42;;;;;;;18.60;8.57;;;3.00;93.40;;;;;;4972392;28;20643;-77
2022/01/22 01:51:10;;;;;;;13.40;7.97;;;3.00;92.80;;;;;;4969814;28;20202;-76
2022/01/22 01:53:50;;;;;;;12.35;7.75;;;3.00;93.00;;;;;;4959072;28;20297;-77
2022/01/22 01:59:03;;;;;;;11.23;7.40;;;3.00;92.70;;;;;;4977815;28;20549;-77
2022/01/22 02:01:30;;;;;;;12.07;8.55;;;3.10;93.00;;;;;;4967368;28;20220;-76
2022/01/22 02:03:58;;;;;;;13.98;8.15;;;3.00;92.60;;;;;;4959630;28;20297;-76
2022/01/22 02:06:25;;;;;;;17.65;9.32;;;3.10;92.60;;;;;;4971428;28;20234;-76
2022/01/22 02:08:53;;;;;;;15.43;7.95;;;3.00;92.20;;;;;;4986994;28;20213;-75
2022/01/22 02:11:24;;;;;;;18.98;10.45;;;3.00;92.60;;;;;;4988231;28;20213;-77
2022/01/22 02:14:04;;;;;;;17.40;9.43;;;3.00;92.70;;;;;;4982151;28;20264;-76
2022/01/22 02:24:50;;;;;;;12.20;8.85;;;2.90;93.20;;;;;;4977922;28;20243;-77
2022/01/22 02:27:17;;;;;;;16.52;9.90;;;3.00;93.40;;;;;;4979233;28;20229;-77
2022/01/22 02:29:44;;;;;;;18.10;9.88;;;3.00;93.40;;;;;;4964836;28;20571;-77
2022/01/22 02:32:44;;;;;;;12.50;9.10;;;3.00;93.60;;;;;;4960331;28;20241;-78
2022/01/22 02:35:17;;;;;;;14.82;9.35;;;3.00;93.70;;;;;;4961677;28;20662;-77
2022/01/22 02:37:51;;;;;;;15.52;9.30;;;3.00;93.50;;;;;;4961345;28;20216;-77
2022/01/22 02:40:24;;;;;;;14.48;8.95;;;2.90;93.30;;;;;;4983970;28;20204;-77
2022/01/22 02:42:51;;;;;;;19.33;11.07;;;3.00;93.70;;;;;;4983165;28;20225;-77
2022/01/22 02:45:22;;;;;;;20.00;9.43;;;2.90;93.80;;;;;;4979565;28;20291;-77
2022/01/22 02:47:49;;;;;;;20.90;10.05;;;2.90;93.70;;;;;;4979757;28;20251;-78
2022/01/22 02:50:17;;;;;;;16.05;9.48;;;3.00;94.20;;;;;;4964010;28;20205;-78
2022/01/22 02:52:45;;;;;;;14.80;9.38;;;3.00;93.90;;;;;;4960314;28;20293;-77
2022/01/22 02:55:13;;;;;;;17.75;10.02;;;3.00;94.10;;;;;;4973962;28;20219;-77
2022/01/22 02:57:43;;;;;;;17.85;10.40;;;2.90;93.90;;;;;;4979151;28;20217;-76
2022/01/22 03:00:12;;;;;;;16.55;10.43;;;2.90;94.30;;;;;;4969685;28;20224;-78
2022/01/22 03:02:39;;;;;;;16.80;8.75;;;3.00;94.30;;;;;;4978471;28;20243;-77
2022/01/22 03:05:07;;;;;;;13.68;10.00;;;3.00;94.40;;;;;;4966277;28;20250;-77
2022/01/22 03:07:35;;;;;;;19.65;10.27;;;3.00;93.90;;;;;;4961087;28;20206;-78
2022/01/22 03:10:05;;;;;;;15.25;9.90;;;3.00;93.80;;;;;;4961115;28;20201;-78
2022/01/22 03:12:52;;;;;;;17.55;9.95;;;3.00;93.60;;;;;;4971291;28;20249;-77
2022/01/22 03:15:37;;;;;;;13.20;8.60;;;3.00;93.60;;;;;;4978497;28;20613;-77
2022/01/22 03:18:10;;;;;;;15.65;9.95;;;3.00;93.50;;;;;;4978573;28;20251;-76
2022/01/22 03:20:49;;;;;;;13.32;8.30;;;3.00;93.30;;;;;;4980128;28;20217;-76
2022/01/22 03:28:54;;;;;;;18.20;10.00;;;3.00;92.80;;;;;;4980567;28;20225;-77
2022/01/22 03:31:22;;;;;;;16.50;9.98;;;3.00;92.70;;;;;;4981434;28;20220;-77
2022/01/22 03:33:49;;;;;;;19.33;10.07;;;3.00;92.90;;;;;;4960407;28;20226;-76
2022/01/22 03:36:16;;;;;;;15.32;9.50;;;3.00;93.00;;;;;;4959689;28;20590;-77
2022/01/22 03:38:43;;;;;;;15.25;9.80;;;3.00;93.20;;;;;;4959759;28;20229;-76
2022/01/22 03:41:11;;;;;;;16.38;9.10;;;3.00;93.10;;;;;;4961688;28;20308;-76
2022/01/22 03:43:39;;;;;;;13.32;8.85;;;3.10;93.00;;;;;;4964419;28;20293;-77
2022/01/22 03:46:06;;;;;;;17.27;9.73;;;3.00;92.80;;;;;;4965103;28;20217;-77
2022/01/22 03:48:33;;;;;;;17.90;9.25;;;3.10;92.70;;;;;;4989294;28;20268;-77
2022/01/22 03:51:00;;;;;;;14.85;9.48;;;3.10;92.70;;;;;;4993415;28;20564;-76
2022/01/22 03:53:27;;;;;;;15.63;8.77;;;3.10;92.30;;;;;;4979108;28;20217;-77
2022/01/22 03:56:02;;;;;;;19.05;9.88;;;3.10;92.20;;;;;;4972733;28;20210;-76
2022/01/22 03:58:31;;;;;;;15.15;8.93;;;3.10;91.90;;;;;;4979698;28;20208;-75
2022/01/22 04:01:23;;;;;;;16.67;9.48;;;3.10;91.80;;;;;;4980952;28;20220;-76
2022/01/22 04:03:56;;;;;;;19.77;9.00;;;3.10;91.50;;;;;;4980186;28;20257;-75
2022/01/22 04:09:11;;;;;;;19.83;10.18;;;3.20;91.50;;;;;;4958400;29;20261;-75
2022/01/22 04:11:42;;;;;;;18.33;9.23;;;3.20;91.50;;;;;;4979712;28;20229;-75
2022/01/22 04:14:16;;;;;;;13.80;8.98;;;3.30;91.00;;;;;;4998935;28;20281;-77
2022/01/22 04:16:56;;;;;;;14.90;9.27;;;3.30;90.90;;;;;;4999398;28;20229;-76
2022/01/22 04:24:52;;;;;;;16.30;9.57;;;3.30;90.40;;;;;;4962618;28;20236;-76
2022/01/22 04:27:23;;;;;;;17.45;9.70;;;3.30;90.30;;;;;;4972017;28;20277;-77
2022/01/22 04:29:54;;;;;;;16.80;9.32;;;3.30;90.40;;;;;;4983066;28;20553;-77
2022/01/22 04:32:21;;;;;;;25.40;10.95;;;3.30;90.10;;;;;;4982371;28;20201;-75
2022/01/22 04:34:48;;;;;;;14.85;8.90;;;3.30;89.70;;;;;;4996806;28;20241;-76
2022/01/22 04:37:17;;;;;;;13.90;8.73;;;3.30;89.90;;;;;;4993016;28;20195;-75
2022/01/22 04:39:45;;;;;;;16.05;8.80;;;3.30;90.10;;;;;;4980688;28;20237;-75
2022/01/22 04:42:12;;;;;;;16.13;9.13;;;3.30;89.80;;;;;;4986009;28;20253;-75
2022/01/22 04:44:47;;;;;;;16.92;9.60;;;3.30;89.60;;;;;;5000023;28;20289;-76
2022/01/22 04:47:26;;;;;;;16.08;9.80;;;3.30;90.00;;;;;;4993998;28;20201;-76
2022/01/22 04:52:42;;;;;;;15.20;9.30;;;3.40;90.00;;;;;;4998857;28;20224;-75
2022/01/22 04:55:08;;;;;;;17.10;9.02;;;3.40;88.80;;;;;;4992789;28;20209;-74
2022/01/22 04:57:39;;;;;;;14.80;8.90;;;3.40;88.60;;;;;;4979616;28;20205;-75
2022/01/22 05:00:10;;;;;;;14.75;9.50;;;3.40;88.20;;;;;;4978475;28;20222;-76
2022/01/22 05:02:39;;;;;;;13.82;8.43;;;3.40;88.30;;;;;;4969626;28;20220;-77
2022/01/22 05:05:07;;;;;;;12.55;7.60;;;3.40;87.70;;;;;;4971238;28;20259;-76
2022/01/22 05:07:34;;;;;;;15.48;8.93;;;3.40;87.20;;;;;;4997015;28;20217;-76
2022/01/22 05:10:02;;;;;;;17.63;8.70;;;3.40;86.40;;;;;;4973986;28;20208;-75
2022/01/22 05:12:29;;;;;;;18.27;9.05;;;3.50;85.80;;;;;;4958794;28;20893;-77
2022/01/22 05:14:56;;;;;;;17.67;9.30;;;3.40;85.10;;;;;;4958573;28;20213;-76
2022/01/22 05:17:23;;;;;;;15.73;9.13;;;3.40;85.10;;;;;;4961685;28;20224;-77
2022/01/22 05:19:57;;;;;;;17.55;8.68;;;3.40;85.00;;;;;;4984875;28;20458;-77
2022/01/22 05:22:41;;;;;;;13.23;9.73;;;3.40;84.60;;;;;;4994682;28;20223;-78
2022/01/22 05:25:16;;;;;;;14.60;8.52;;;3.50;84.40;;;;;;4968522;28;20221;-77
2022/01/22 05:27:57;;;;;;;17.58;10.43;;;3.50;84.30;;;;;;4968376;29;20225;-78
2022/01/22 05:33:28;;;;;;;13.23;8.63;;;3.50;84.30;;;;;;4964054;28;20636;-76
2022/01/22 05:38:40;;;;;;;15.95;9.07;;;3.50;84.30;;;;;;4968634;28;20638;-76
2022/01/22 05:41:07;;;;;;;17.05;9.25;;;3.50;84.30;;;;;;4956919;29;20210;-76
2022/01/22 05:43:34;;;;;;;14.73;8.90;;;3.50;84.30;;;;;;4962689;28;20716;-77
2022/01/22 05:46:01;;;;;;;14.13;8.68;;;3.50;84.30;;;;;;4975105;28;20248;-76
2022/01/22 05:48:27;;;;;;;15.32;9.50;;;3.60;84.40;;;;;;4976085;28;20271;-77
2022/01/22 05:50:59;;;;;;;13.68;8.57;;;3.60;84.40;;;;;;4971983;28;20552;-76
2022/01/22 05:53:38;;;;;;;11.50;8.00;;;3.60;84.40;;;;;;4956887;29;20234;-77
2022/01/22 06:01:34;;;;;;;17.08;11.60;;;3.50;84.60;;;;;;4969243;28;20232;-75
2022/01/22 06:04:00;;;;;;;15.13;9.52;;;3.50;85.30;;;;;;4956298;28;20247;-76
2022/01/22 06:06:29;;;;;;;19.73;10.60;;;3.50;85.70;;;;;;4959536;28;20692;-76
2022/01/22 06:08:57;;;;;;;20.90;10.55;;;3.60;86.40;;;;;;4965997;28;20209;-76
2022/01/22 06:11:26;;;;;;;19.10;10.65;;;3.60;85.50;;;;;;4973121;28;20209;-76
2022/01/22 06:13:53;;;;;;;14.85;10.45;;;3.60;84.90;;;;;;4976508;28;20257;-75
2022/01/22 06:16:21;;;;;;;18.13;11.00;;;3.60;85.30;;;;;;4973775;28;20231;-76
2022/01/22 06:18:49;;;;;;;18.25;11.02;;;3.60;85.20;;;;;;4957482;28;20410;-76
2022/01/22 06:21:16;;;;;;;18.77;10.40;;;3.60;85.20;;;;;;4959687;28;20273;-76
2022/01/22 06:23:45;;;;;;;23.20;11.55;;;3.60;84.80;;;;;;4959865;28;20252;-76
2022/01/22 06:26:13;;;;;;;26.45;11.13;;;3.60;84.70;;;;;;4959888;28;20322;-78
2022/01/22 06:28:41;;;;;;;18.80;9.55;;;3.60;84.90;;;;;;4965106;28;20239;-75
2022/01/22 06:31:08;;;;;;;21.58;11.95;;;3.70;85.50;;;;;;4976057;28;20209;-78
2022/01/22 06:33:36;;;;;;;19.20;11.88;;;3.70;84.80;;;;;;4957284;28;20233;-76
2022/01/22 06:36:03;;;;;;;20.42;10.93;;;3.70;84.70;;;;;;4956651;29;20498;-76
2022/01/22 06:38:30;;;;;;;18.70;9.90;;;3.70;84.40;;;;;;4956145;28;20228;-76
2022/01/22 06:43:42;;;;;;;18.30;11.50;;;3.70;84.50;;;;;;4974369;28;20235;-76
2022/01/22 06:46:09;;;;;;;17.67;10.98;;;3.70;84.60;;;;;;4974549;28;20213;-76
2022/01/22 06:48:36;;;;;;;17.67;11.00;;;3.70;84.40;;;;;;4956070;28;20206;-78
2022/01/22 06:51:03;;;;;;;21.65;11.23;;;3.70;84.60;;;;;;4954929;28;20210;-76
2022/01/22 06:53:30;;;;;;;16.85;11.68;;;3.70;84.50;;;;;;4972047;28;20225;-77
2022/01/22 06:56:01;;;;;;;17.27;11.25;;;3.70;84.50;;;;;;4974453;28;20241;-76
2022/01/22 06:58:27;;;;;;;19.25;11.13;;;3.70;84.40;;;;;;4974204;28;20201;-77
2022/01/22 07:00:54;;;;;;;19.35;12.13;;;3.70;84.40;;;;;;4974408;28;20295;-77
2022/01/22 07:03:21;;;;;;;20.85;11.75;;;3.70;84.40;;;;;;4956594;28;20316;-76
2022/01/22 07:05:48;;;;;;;23.35;11.57;;;3.70;84.40;;;;;;4957508;28;20206;-75
2022/01/22 07:08:15;;;;;;;20.08;10.75;;;3.70;84.40;;;;;;4974196;28;20225;-78
2022/01/22 07:10:42;;;;;;;19.20;12.25;;;3.80;84.50;;;;;;4975125;28;20201;-76
2022/01/22 07:13:10;;;;;;;22.83;12.13;;;3.80;84.50;;;;;;4965165;28;20273;-76
2022/01/22 07:15:37;;;;;;;21.88;12.65;;;3.70;84.40;;;;;;4976113;28;20201;-81
2022/01/22 07:18:04;;;;;;;21.10;13.18;;;3.80;84.90;;;;;;4990918;28;20243;-80
2022/01/22 07:20:34;;;;;;;21.70;12.73;;;3.80;84.50;;;;;;4985952;28;20237;-79
2022/01/22 07:23:04;;;;;;;24.23;12.13;;;3.80;84.50;;;;;;4983335;28;20237;-79
2022/01/22 07:25:31;;;;;;;21.17;12.27;;;3.80;85.20;;;;;;4990400;28;20264;-75
2022/01/22 07:27:58;;;;;;;21.13;12.40;;;3.90;84.60;;;;;;4981740;28;20221;-76
2022/01/22 07:30:27;;;;;;;27.00;12.18;;;3.90;84.30;;;;;;4981015;28;20200;-75
2022/01/22 07:32:54;;;;;;;16.95;12.23;;;3.80;84.40;;;;;;4976089;28;20237;-75
2022/01/22 07:35:21;;;;;;;21.10;12.80;;;3.90;84.20;;;;;;4976331;28;20216;-76
2022/01/22 07:37:48;;;;;;;26.83;11.70;;;3.90;83.70;;;;;;4975426;28;20577;-75
2022/01/22 07:40:15;;;;;;;17.88;11.85;;;3.80;84.10;;;;;;4977354;28;20229;-76
2022/01/22 07:42:42;;;;;;;18.80;12.13;;;3.90;84.10;;;;;;4965623;28;20202;-77
2022/01/22 07:45:10;;;;;;;20.70;12.20;;;3.90;83.90;;;;;;4955399;28;20224;-75
2022/01/22 07:47:39;;;;;;;25.17;13.10;;;3.90;83.90;;;;;;4956407;28;20217;-76
2022/01/22 07:50:07;;;;;;;19.90;13.43;;;3.90;83.90;;;;;;4957324;28;20202;-76
2022/01/22 07:52:34;;;;;;;20.40;12.57;;;3.90;83.50;;;;;;4975572;28;20217;-76
2022/01/22 07:55:01;;;;;;;28.27;13.65;;;3.90;83.70;;;;;;4978219;28;20221;-75
2022/01/22 07:57:28;;;;;;;21.92;13.18;;;4.00;83.90;;;;;;4961268;28;20208;-75
2022/01/22 07:59:55;;;;;;;23.63;12.50;;;4.00;83.70;;;;;;4958540;29;20271;-77
2022/01/22 08:02:22;;;;;;;17.63;11.48;;;4.00;83.80;;;;;;4973920;28;20244;-77
2022/01/22 08:04:50;;;;;;;19.33;12.15;;;4.00;83.30;;;;;;4977204;28;20237;-77
2022/01/22 08:07:17;;;;;;;21.88;12.80;;;4.00;83.50;;;;;;4962984;28;20225;-75
2022/01/22 08:09:45;;;;;;;22.48;13.15;;;4.10;83.80;;;;;;4959826;28;20300;-77
2022/01/22 08:12:12;;;;;;;20.08;12.35;;;4.10;83.10;;;;;;4959082;28;20626;-75
2022/01/22 08:14:39;;;;;;;24.02;13.73;;;4.00;82.10;;;;;;4970636;28;20301;-76
2022/01/22 08:17:06;;;;;;;19.52;11.48;;;4.10;82.90;;;;;;4978625;28;20232;-80
2022/01/22 08:19:33;;;;;;;20.25;12.20;;;4.10;83.40;;;;;;4986431;28;20213;-74
2022/01/22 08:22:01;;;;;;;21.83;12.13;;;4.20;82.80;;;;;;4980353;28;20209;-78
2022/01/22 08:24:28;;;;;;;17.73;11.10;;;4.20;83.00;;;;;;4977820;28;20267;-78
2022/01/22 08:27:10;;;;;;;21.70;11.60;;;4.20;82.30;;;;;;4978518;28;20217;-79
2022/01/22 08:29:37;;;;;;;21.27;12.23;;;4.20;81.60;;;;;;4977398;28;20225;-77
2022/01/22 08:32:10;;;;;;;17.05;11.23;;;4.20;80.80;;;;;;4986316;28;20224;-78
2022/01/22 08:37:23;;;;;;;22.70;11.32;;;4.20;80.70;;;;;;4980574;28;20220;-77
2022/01/22 08:39:50;;;;;;;18.38;11.35;;;4.20;80.70;;;;;;4980453;28;20291;-77
2022/01/22 08:42:18;;;;;;;20.35;11.82;;;4.30;80.80;;;;;;4972688;28;20262;-77
2022/01/22 08:44:46;;;;;;;19.15;11.23;;;4.30;80.80;;;;;;5006410;28;20331;-78
2022/01/22 08:47:14;;;;;;;17.17;12.13;;;4.30;80.60;;;;;;5001011;28;20218;-78
2022/01/22 08:49:40;;;;;;;20.63;12.05;;;4.30;79.70;;;;;;5006795;28;20236;-78
2022/01/22 08:52:12;;;;;;;17.33;11.05;;;4.30;80.00;;;;;;4984010;28;20649;-78
2022/01/22 08:54:40;;;;;;;15.55;10.65;;;4.30;79.90;;;;;;4977782;28;20308;-79
2022/01/22 08:57:07;;;;;;;20.58;10.80;;;4.40;79.60;;;;;;4978777;28;20665;-78
2022/01/22 08:59:34;;;;;;;15.95;9.80;;;4.40;79.20;;;;;;4974934;28;20215;-78
2022/01/22 09:02:01;;;;;;;18.52;10.57;;;4.50;79.00;;;;;;4980858;28;20316;-78
2022/01/22 09:04:28;;;;;;;21.42;12.00;;;4.50;78.70;;;;;;4988371;28;20228;-78
2022/01/22 09:06:55;;;;;;;19.00;10.75;;;4.50;77.90;;;;;;4981926;28;20257;-77
2022/01/22 09:09:22;;;;;;;14.35;9.63;;;4.50;77.90;;;;;;4971859;28;20213;-78
2022/01/22 09:11:50;;;;;;;15.05;9.70;;;4.60;76.90;;;;;;4964226;29;20274;-79
2022/01/22 09:14:18;;;;;;;19.38;10.43;;;4.60;76.90;;;;;;4964863;28;20261;-78
2022/01/22 09:16:47;;;;;;;13.25;8.82;;;4.70;75.20;;;;;;4967100;28;20269;-77
2022/01/22 09:19:16;;;;;;;15.93;10.25;;;4.60;75.00;;;;;;4964776;29;20289;-78
2022/01/22 09:21:45;;;;;;;16.90;9.57;;;4.70;74.30;;;;;;4964302;28;20595;-78
2022/01/22 09:24:15;;;;;;;15.07;10.15;;;4.70;74.00;;;;;;4967363;29;20233;-78
2022/01/22 09:26:42;;;;;;;14.25;9.90;;;4.70;73.80;;;;;;4981687;28;20197;-77
2022/01/22 09:29:11;;;;;;;16.35;9.98;;;4.70;73.30;;;;;;5005215;28;20571;-76
2022/01/22 09:31:37;;;;;;;22.13;9.85;;;4.80;72.80;;;;;;5001459;28;21742;-78
2022/01/22 09:34:04;;;;;;;16.20;9.32;;;4.70;72.80;;;;;;4968889;28;20616;-78
2022/01/22 09:36:33;;;;;;;15.63;8.95;;;4.70;72.80;;;;;;4970569;28;20221;-78
2022/01/22 09:39:00;;;;;;;19.13;8.80;;;4.70;72.80;;;;;;4971592;28;20220;-77
2022/01/22 09:41:28;;;;;;;16.45;9.35;;;4.70;72.80;;;;;;4972796;28;20256;-78
2022/01/22 09:43:55;;;;;;;17.92;9.30;;;4.70;72.80;;;;;;4969502;28;20225;-79
2022/01/22 09:46:25;;;;;;;15.45;9.15;;;4.70;72.80;;;;;;4973021;28;20277;-78
2022/01/22 09:48:54;;;;;;;13.95;9.27;;;4.70;72.80;;;;;;4979555;28;20216;-78
2022/01/22 09:51:20;;;;;;;23.52;10.63;;;4.70;72.80;;;;;;4977263;28;20208;-78
2022/01/22 09:53:48;;;;;;;17.17;9.70;;;4.70;72.80;;;;;;4986438;28;20243;-78
2022/01/22 09:56:20;;;;;;;18.00;10.13;;;4.70;73.40;;;;;;4973856;28;20210;-78
2022/01/22 09:58:47;;;;;;;12.45;8.95;;;4.70;72.80;;;;;;4965936;28;20206;-78
2022/01/22 10:01:26;;;;;;;16.13;9.80;;;4.70;72.80;;;;;;4963705;28;20248;-78
2022/01/22 10:03:55;;;;;;;22.67;10.70;;;4.80;72.80;;;;;;4964823;28;20276;-78
2022/01/22 10:06:24;;;;;;;19.25;10.20;;;4.90;72.90;;;;;;4968484;28;20210;-77
2022/01/22 10:08:55;;;;;;;13.82;10.07;;;4.90;72.30;;;;;;4972783;28;20210;-79
2022/01/22 10:11:25;;;;;;;17.40;8.75;;;4.90;71.90;;;;;;4971048;28;20706;-77
2022/01/22 10:13:53;;;;;;;26.70;10.60;;;5.00;71.90;;;;;;4991272;28;20225;-75
2022/01/22 10:16:24;;;;;;;13.57;8.93;;;5.00;71.50;;;;;;4984616;28;20205;-76
2022/01/22 10:19:10;;;;;;;13.45;9.20;;;5.00;71.10;;;;;;4976649;28;20205;-75
2022/01/22 10:21:39;;;;;;;14.15;9.63;;;4.90;71.00;;;;;;4977324;28;20225;-78
2022/01/22 10:24:29;;;;;;;17.02;10.07;;;4.90;71.50;;;;;;4965794;28;20304;-77
2022/01/22 10:27:28;;;;;;;13.80;9.35;;;4.90;71.50;;;;;;4961856;29;20217;-77
2022/01/22 10:29:57;;;;;;;16.17;9.98;;;4.90;71.30;;;;;;4966366;28;20623;-75
2022/01/22 10:32:36;;;;;;;17.02;9.63;;;4.90;71.30;;;;;;4967381;28;20206;-79
2022/01/22 10:35:06;;;;;;;21.45;8.85;;;5.00;71.40;;;;;;4994901;28;20209;-77
2022/01/22 10:37:33;;;;;;;15.27;10.35;;;5.00;71.10;;;;;;4986166;28;20285;-78
2022/01/22 10:40:27;;;;;;;18.88;10.35;;;5.00;70.90;;;;;;4967161;28;20216;-77
2022/01/22 10:43:11;;;;;;;14.95;10.07;;;5.00;71.20;;;;;;4970517;28;20229;-78
2022/01/22 10:45:41;;;;;;;17.73;10.10;;;5.00;70.90;;;;;;4983899;28;20216;-77
2022/01/22 10:48:17;;;;;;;16.80;9.93;;;5.00;70.90;;;;;;4983896;28;20537;-78
2022/01/22 10:50:44;;;;;;;16.95;10.93;;;5.10;70.60;;;;;;4979124;28;20197;-77
2022/01/22 10:53:11;;;;;;;13.43;9.13;;;5.10;70.30;;;;;;4965086;28;20312;-78
2022/01/22 10:56:02;;;;;;;11.23;9.80;;;5.10;70.30;;;;;;4971470;28;20225;-77
2022/01/22 10:58:29;;;;;;;16.80;9.05;;;5.20;70.20;;;;;;4977871;28;20211;-75
2022/01/22 11:01:01;;;;;;;18.70;11.30;;;5.30;69.80;;;;;;4980362;28;20263;-79
2022/01/22 11:03:29;;;;;;;16.42;10.20;;;5.30;69.00;;;;;;4983275;28;20296;-77
2022/01/22 11:05:58;;;;;;;17.63;9.93;;;5.40;69.00;;;;;;4972632;28;20218;-78
2022/01/22 11:08:28;;;;;;;14.60;8.80;;;5.40;68.70;;;;;;4967096;28;20454;-78
2022/01/22 11:10:55;;;;;;;15.25;9.80;;;5.50;68.10;;;;;;4979987;28;20211;-77
2022/01/22 11:13:21;;;;;;;14.18;10.13;;;5.40;67.70;;;;;;4986358;28;20233;-78
2022/01/22 11:15:51;;;;;;;16.83;10.23;;;5.50;67.70;;;;;;4971210;28;20194;-77
2022/01/22 11:18:18;;;;;;;13.25;9.80;;;5.60;67.40;;;;;;4968623;28;20201;-78
2022/01/22 11:20:48;;;;;;;18.73;9.95;;;5.60;66.60;;;;;;4980812;28;20221;-76
2022/01/22 11:23:18;;;;;;;15.00;9.70;;;5.60;66.30;;;;;;4971659;28;20245;-77
2022/01/22 11:25:45;;;;;;;24.00;10.40;;;5.70;66.00;;;;;;4960838;28;20214;-77
2022/01/22 11:28:14;;;;;;;16.73;10.82;;;5.70;65.40;;;;;;4972525;28;20209;-77
2022/01/22 11:30:46;;;;;;;18.33;10.60;;;5.60;65.80;;;;;;4990013;28;20684;-75
2022/01/22 11:33:17;;;;;;;15.98;10.15;;;5.70;65.80;;;;;;4975068;28;20226;-75
2022/01/22 11:35:56;;;;;;;17.48;9.10;;;5.70;66.20;;;;;;4976826;28;20197;-76
2022/01/22 11:38:29;;;;;;;16.10;9.82;;;5.70;65.80;;;;;;4988563;28;20208;-76
2022/01/22 11:41:10;;;;;;;17.55;9.75;;;5.80;65.00;;;;;;4995688;28;20217;-76
2022/01/22 11:44:08;;;;;;;22.05;11.70;;;5.80;65.00;;;;;;4976841;28;20222;-77
2022/01/22 11:46:39;;;;;;;16.17;10.52;;;5.70;65.60;;;;;;4968895;28;20212;-78
2022/01/22 11:49:17;;;;;;;15.93;10.40;;;5.70;65.90;;;;;;4987341;28;20216;-77
2022/01/22 11:51:47;;;;;;;16.02;10.23;;;5.70;65.70;;;;;;4982474;28;20236;-78
2022/01/22 11:54:16;;;;;;;18.30;10.98;;;5.50;66.00;;;;;;4982111;28;20229;-78
2022/01/22 11:56:46;;;;;;;16.05;10.52;;;5.50;66.60;;;;;;4986995;28;20220;-77
2022/01/22 11:59:20;;;;;;;17.88;11.75;;;5.50;67.10;;;;;;4970875;28;20222;-77
2022/01/22 12:01:53;;;;;;;16.25;10.85;;;5.50;67.10;;;;;;4989641;28;20471;-76
2022/01/22 12:04:22;;;;;;;19.77;11.52;;;5.40;67.20;;;;;;4998266;28;20238;-77
2022/01/22 12:07:13;;;;;;;19.80;11.25;;;5.60;67.40;;;;;;4995652;28;20272;-78
2022/01/22 12:09:51;;;;;;;15.07;10.65;;;5.70;66.90;;;;;;4997486;28;20269;-77
2022/01/22 12:15:16;;;;;;;20.73;12.02;;;5.70;66.30;;;;;;4993980;28;20219;-76
2022/01/22 12:18:07;;;;;;;16.90;10.35;;;5.70;66.50;;;;;;4985703;28;20273;-77
2022/01/22 12:23:50;;;;;;;18.38;11.70;;;5.70;67.20;;;;;;4981043;28;20240;-77
2022/01/22 12:26:41;;;;;;;18.80;12.38;;;5.70;67.20;;;;;;4991791;28;20224;-77
2022/01/22 12:29:28;;;;;;;19.95;11.30;;;5.70;67.50;;;;;;4988732;28;20236;-77
2022/01/22 12:32:37;;;;;;;18.92;10.93;;;5.80;67.60;;;;;;4988762;28;20292;-78
2022/01/22 12:35:11;;;;;;;19.50;10.50;;;5.80;67.00;;;;;;4939846;28;20590;-76
2022/01/22 12:37:43;;;;;;;20.58;12.30;;;5.80;66.90;;;;;;4976337;28;20201;-76
2022/01/22 12:40:13;;;;;;;16.25;10.93;;;5.80;66.70;;;;;;4991906;28;20221;-75
2022/01/22 12:43:15;;;;;;;22.35;11.88;;;5.80;67.30;;;;;;4990259;28;20276;-76
2022/01/22 12:45:46;;;;;;;16.65;12.15;;;5.80;67.20;;;;;;4986196;28;20241;-78
2022/01/22 12:48:15;;;;;;;17.48;10.60;;;5.90;67.20;;;;;;4975886;28;20206;-76
2022/01/22 12:50:42;;;;;;;15.63;11.60;;;5.90;67.10;;;;;;4971690;28;20213;-76
2022/01/22 12:53:17;;;;;;;17.17;11.90;;;6.00;66.30;;;;;;4972784;28;20225;-76
2022/01/22 12:58:33;;;;;;;17.10;10.95;;;5.90;66.50;;;;;;4985804;28;20544;-77
2022/01/22 13:01:16;;;;;;;19.33;11.32;;;5.90;66.60;;;;;;4985161;28;20972;-79
2022/01/22 13:03:45;;;;;;;15.90;11.00;;;5.90;66.50;;;;;;4978014;28;20316;-77
2022/01/22 13:06:13;;;;;;;14.93;11.10;;;6.00;66.30;;;;;;4967309;28;20702;-77
2022/01/22 13:08:40;;;;;;;21.08;12.10;;;6.10;66.10;;;;;;4967300;28;20205;-76
2022/01/22 13:11:10;;;;;;;17.02;12.02;;;6.20;65.30;;;;;;4968111;28;20220;-77
2022/01/22 13:13:39;;;;;;;18.70;11.68;;;6.20;65.40;;;;;;4968451;28;20236;-77
2022/01/22 13:16:08;;;;;;;18.13;11.48;;;6.10;65.20;;;;;;4966314;28;20206;-77
2022/01/22 13:18:42;;;;;;;18.77;13.10;;;6.00;65.80;;;;;;4967700;28;20300;-76
2022/01/22 13:21:10;;;;;;;19.42;11.65;;;5.90;66.00;;;;;;4971790;28;20217;-76
2022/01/22 13:23:37;;;;;;;20.25;11.35;;;6.00;66.50;;;;;;4968269;28;20265;-77
2022/01/22 13:26:04;;;;;;;27.17;12.07;;;6.00;66.00;;;;;;4964176;28;20202;-75
2022/01/22 13:28:33;;;;;;;18.75;12.60;;;6.00;66.50;;;;;;4981679;28;20239;-75
2022/01/22 13:31:05;;;;;;;18.35;12.30;;;6.00;66.50;;;;;;4981529;28;20216;-77
2022/01/22 13:33:40;;;;;;;21.88;12.65;;;6.10;66.10;;;;;;4978108;28;20754;-76
2022/01/22 13:36:17;;;;;;;19.88;12.40;;;6.20;66.10;;;;;;4977707;28;20201;-76
2022/01/22 13:39:08;;;;;;;16.75;11.38;;;6.20;65.30;;;;;;4994505;28;20658;-77
2022/01/22 13:49:51;;;;;;;24.88;12.45;;;6.00;65.70;;;;;;4985412;28;20215;-76
2022/01/22 13:52:20;;;;;;;18.65;12.38;;;6.00;65.90;;;;;;4972667;28;20210;-77
2022/01/22 13:54:49;;;;;;;17.25;11.27;;;6.10;66.00;;;;;;4985549;28;20236;-76
2022/01/22 13:57:17;;;;;;;20.13;12.50;;;6.10;65.90;;;;;;4980344;28;20230;-76
2022/01/22 13:59:48;;;;;;;16.98;11.77;;;6.00;65.20;;;;;;4967590;28;20248;-76
2022/01/22 14:02:30;;;;;;;20.77;12.30;;;6.10;65.30;;;;;;4987269;28;20245;-78
2022/01/22 14:05:04;;;;;;;21.35;12.10;;;6.10;65.20;;;;;;4987303;28;20208;-77
2022/01/22 14:07:35;;;;;;;17.65;12.05;;;6.20;65.30;;;;;;4985095;28;20220;-77
2022/01/22 14:10:04;;;;;;;14.45;10.43;;;6.10;65.20;;;;;;4966243;28;20209;-73
2022/01/22 14:12:38;;;;;;;20.15;12.90;;;6.20;65.30;;;;;;4970221;28;20546;-74